Time;durP1;ratioP1;P1;durP2;ratioP2;P2;SDS_P1;SDS_P2;PMS_P1;PMS_P2;Temp;Humidity;BMP_temperature;BMP_pressure;BME280_temperature;BME280_humidity;BME280_pressure;Samples;Min_cycle;Max_cycle;Signal;HPM_P1;HPM_P2
2022/07/02 00:00:45;;;;;;;9.05;3.67;;;;;;;20.89;51.40;102191.84;5035434;28;20041;-72
2022/07/02 00:03:15;;;;;;;4.65;3.40;;;;;;;20.84;52.06;102194.53;5034981;28;20040;-71
2022/07/02 00:05:53;;;;;;;5.47;3.10;;;;;;;20.98;51.40;102187.56;5035410;28;20045;-72
2022/07/02 00:08:19;;;;;;;7.72;3.80;;;;;;;20.83;50.91;102181.94;5035434;28;20041;-71
2022/07/02 00:10:47;;;;;;;7.95;3.67;;;;;;;20.87;51.56;102176.81;5034196;28;20044;-71
2022/07/02 00:13:13;;;;;;;17.55;4.70;;;;;;;20.81;51.38;102184.13;5033640;28;20401;-71
2022/07/02 00:15:38;;;;;;;8.05;3.33;;;;;;;20.81;51.70;102175.91;5035284;28;20033;-73
2022/07/02 00:18:04;;;;;;;8.20;3.72;;;;;;;20.72;52.12;102182.97;5035797;28;20060;-73
2022/07/02 00:20:31;;;;;;;7.38;3.83;;;;;;;20.54;52.34;102182.53;5035190;28;20056;-74
2022/07/02 00:22:56;;;;;;;9.85;4.55;;;;;;;20.60;52.28;102185.03;5035162;28;20124;-72
2022/07/02 00:25:23;;;;;;;7.65;4.22;;;;;;;20.53;52.48;102189.06;5035148;28;20464;-73
2022/07/02 00:27:50;;;;;;;7.50;4.22;;;;;;;20.57;52.47;102193.75;5035242;28;20371;-72
2022/07/02 00:30:15;;;;;;;8.20;4.45;;;;;;;20.62;52.08;102187.50;5035363;28;20025;-73
2022/07/02 00:32:41;;;;;;;7.15;4.30;;;;;;;20.63;52.35;102189.16;5034934;28;20556;-72
2022/07/02 00:35:09;;;;;;;9.35;4.35;;;;;;;20.48;52.56;102183.56;5034891;28;20076;-72
2022/07/02 00:37:39;;;;;;;11.90;3.95;;;;;;;20.67;51.74;102176.63;5034785;28;20409;-71
2022/07/02 00:40:06;;;;;;;7.88;4.13;;;;;;;20.57;52.00;102179.25;5034731;28;20497;-73
2022/07/02 00:42:34;;;;;;;6.97;4.25;;;;;;;20.54;51.97;102179.78;5035287;28;20025;-72
2022/07/02 00:45:00;;;;;;;9.23;4.85;;;;;;;20.48;52.04;102183.56;5034676;28;20052;-73
2022/07/02 00:47:27;;;;;;;7.03;4.13;;;;;;;20.41;53.04;102178.28;5034738;28;20127;-74
2022/07/02 00:49:52;;;;;;;9.10;4.10;;;;;;;20.58;51.46;102180.94;5034657;28;20048;-73
2022/07/02 00:52:18;;;;;;;7.50;4.43;;;;;;;20.46;52.23;102181.06;5034499;28;20030;-74
2022/07/02 00:54:43;;;;;;;9.73;4.70;;;;;;;20.52;51.74;102174.56;5034209;28;20041;-72
2022/07/02 00:57:08;;;;;;;6.50;4.75;;;;;;;20.52;51.91;102182.75;5034972;28;20029;-72
2022/07/02 00:59:35;;;;;;;7.57;4.25;;;;;;;20.46;52.40;102183.78;5034318;28;20099;-72
2022/07/02 01:02:01;;;;;;;5.88;4.25;;;;;;;20.46;51.92;102177.53;5034529;28;20087;-72
2022/07/02 01:04:29;;;;;;;8.02;4.47;;;;;;;20.51;52.38;102170.19;5034081;28;20408;-73
2022/07/02 01:07:02;;;;;;;4.57;4.18;;;;;;;20.52;51.96;102166.38;5034113;28;20061;-73
2022/07/02 01:12:14;;;;;;;5.03;4.47;;;;;;;20.38;52.60;102165.16;5034104;28;20110;-73
2022/07/02 01:14:40;;;;;;;10.32;4.75;;;;;;;19.97;54.07;102166.59;5033949;28;20557;-72
2022/07/02 01:17:06;;;;;;;7.55;4.40;;;;;;;20.33;52.76;102159.63;5030392;28;20030;-72
2022/07/02 01:19:31;;;;;;;6.88;4.20;;;;;;;20.34;52.73;102163.19;5033593;28;20029;-73
2022/07/02 01:22:22;;;;;;;11.52;4.38;;;;;;;20.28;52.85;102165.06;5033228;28;20658;-72
2022/07/02 01:24:51;;;;;;;9.52;4.55;;;;;;;20.25;52.68;102173.75;5031585;28;20033;-72
2022/07/02 01:27:18;;;;;;;6.90;4.60;;;;;;;20.20;53.12;102168.25;5034417;28;20497;-72
2022/07/02 01:29:44;;;;;;;6.68;5.15;;;;;;;20.10;53.39;102163.47;5034069;28;20045;-73
2022/07/02 01:32:10;;;;;;;7.40;5.03;;;;;;;20.27;52.80;102162.56;5033357;28;20036;-73
2022/07/02 01:34:39;;;;;;;9.13;5.53;;;;;;;20.20;53.22;102157.34;5032935;28;20069;-72
2022/07/02 01:37:08;;;;;;;8.77;4.45;;;;;;;20.01;53.70;102154.06;5033009;28;20060;-73
2022/07/02 01:39:35;;;;;;;9.90;4.90;;;;;;;20.07;53.23;102157.69;5033580;28;20041;-72
2022/07/02 01:42:01;;;;;;;8.63;4.47;;;;;;;20.11;52.91;102159.66;5031828;28;20037;-73
2022/07/02 01:44:26;;;;;;;12.50;4.63;;;;;;;20.09;53.73;102160.97;5033182;28;20041;-72
2022/07/02 01:46:53;;;;;;;6.80;4.68;;;;;;;19.84;54.57;102161.53;5032900;28;20110;-70
2022/07/02 01:49:18;;;;;;;5.50;4.30;;;;;;;20.06;53.67;102167.81;5033043;28;20099;-71
2022/07/02 01:51:43;;;;;;;7.40;4.55;;;;;;;20.04;53.43;102166.41;5033443;28;20060;-72
2022/07/02 01:54:09;;;;;;;10.10;6.35;;;;;;;20.06;52.74;102159.63;5033984;28;20037;-71
2022/07/02 01:56:35;;;;;;;6.90;5.53;;;;;;;19.42;54.84;102157.69;5033560;28;20033;-72
2022/07/02 01:59:01;;;;;;;8.75;5.32;;;;;;;19.89;53.32;102163.50;5032432;28;20820;-72
2022/07/02 02:01:27;;;;;;;7.20;4.50;;;;;;;19.86;54.11;102161.25;5033575;28;20045;-72
2022/07/02 02:03:52;;;;;;;5.45;4.93;;;;;;;19.73;54.79;102156.19;5033647;28;20103;-71
2022/07/02 02:06:17;;;;;;;10.15;4.70;;;;;;;19.87;53.43;102157.47;5033744;28;20038;-72
2022/07/02 02:08:43;;;;;;;9.10;6.00;;;;;;;19.97;53.38;102160.28;5033247;28;20033;-71
2022/07/02 02:11:08;;;;;;;8.38;5.10;;;;;;;19.95;53.81;102155.09;5032952;28;20037;-73
2022/07/02 02:13:34;;;;;;;7.15;5.50;;;;;;;19.55;54.19;102172.88;5033138;28;20556;-72
2022/07/02 02:15:59;;;;;;;7.32;5.47;;;;;;;19.61;55.12;102169.97;5032684;28;20041;-73
2022/07/02 02:18:24;;;;;;;7.82;5.18;;;;;;;19.85;54.00;102170.53;5033760;28;20041;-73
2022/07/02 02:20:50;;;;;;;16.70;5.85;;;;;;;19.92;53.73;102171.16;5031319;28;20041;-70
2022/07/02 02:23:15;;;;;;;5.72;4.68;;;;;;;19.76;54.53;102174.78;5013126;28;20030;-72
2022/07/02 02:25:41;;;;;;;7.43;5.20;;;;;;;19.71;55.12;102167.38;5018558;28;20029;-73
2022/07/02 02:28:06;;;;;;;14.80;6.13;;;;;;;19.87;54.14;102165.66;5032725;28;20037;-72
2022/07/02 02:30:31;;;;;;;7.97;5.28;;;;;;;19.85;54.19;102162.34;5033340;28;20037;-74
2022/07/02 02:32:57;;;;;;;8.77;6.15;;;;;;;19.71;54.72;102151.00;5032792;28;20029;-73
2022/07/02 02:35:22;;;;;;;9.77;6.32;;;;;;;19.65;54.96;102151.19;5032785;28;20037;-72
2022/07/02 02:37:48;;;;;;;7.88;5.95;;;;;;;19.81;54.63;102151.09;5032821;28;20040;-72
2022/07/02 02:40:13;;;;;;;13.98;6.30;;;;;;;19.70;55.18;102143.06;5032802;28;20520;-73
2022/07/02 02:42:39;;;;;;;9.30;6.40;;;;;;;19.40;56.07;102138.03;5031445;28;20041;-72
2022/07/02 02:45:05;;;;;;;10.38;5.65;;;;;;;19.52;55.34;102143.38;5033014;28;20052;-73
2022/07/02 02:47:30;;;;;;;7.85;5.30;;;;;;;19.69;54.51;102131.34;5031450;28;20025;-72
2022/07/02 02:49:55;;;;;;;9.85;6.53;;;;;;;19.45;54.79;102140.84;5032583;28;20046;-73
2022/07/02 02:52:21;;;;;;;11.88;6.72;;;;;;;19.69;54.73;102144.97;5032138;28;20061;-72
2022/07/02 02:54:46;;;;;;;10.65;6.80;;;;;;;19.66;54.48;102140.00;5032130;28;20362;-72
2022/07/02 02:57:12;;;;;;;11.93;7.55;;;;;;;19.32;55.77;102138.41;5032830;28;20025;-73
2022/07/02 02:59:38;;;;;;;16.08;7.13;;;;;;;19.49;55.12;102141.16;5032222;28;20098;-73
2022/07/02 03:02:03;;;;;;;8.85;6.82;;;;;;;19.37;55.69;102152.16;5032265;28;20053;-72
2022/07/02 03:04:29;;;;;;;12.10;7.13;;;;;;;19.56;55.02;102158.13;5032229;28;20048;-74
2022/07/02 03:06:54;;;;;;;10.32;7.22;;;;;;;19.14;56.75;102158.59;5032059;28;20041;-72
2022/07/02 03:09:19;;;;;;;13.23;6.70;;;;;;;19.03;57.07;102161.44;5032527;28;20041;-72
2022/07/02 03:11:45;;;;;;;10.23;7.20;;;;;;;19.08;56.79;102159.63;5030535;28;20052;-71
2022/07/02 03:14:10;;;;;;;10.07;6.78;;;;;;;19.22;56.72;102166.38;5032028;28;20041;-73
2022/07/02 03:16:36;;;;;;;9.65;6.45;;;;;;;19.07;56.74;102162.59;5032051;28;20076;-72
2022/07/02 03:19:01;;;;;;;7.88;6.80;;;;;;;19.27;56.52;102169.19;5032036;28;20163;-72
2022/07/02 03:21:26;;;;;;;10.20;6.07;;;;;;;19.34;55.65;102177.19;5025434;28;20038;-72
2022/07/02 03:23:52;;;;;;;13.00;7.38;;;;;;;19.07;56.58;102174.31;5011861;28;20057;-71
2022/07/02 03:26:17;;;;;;;9.15;6.97;;;;;;;18.88;57.11;102178.38;5021854;28;20037;-71
2022/07/02 03:28:43;;;;;;;10.95;7.30;;;;;;;19.05;56.39;102176.47;5031598;28;20038;-72
2022/07/02 03:31:08;;;;;;;9.18;7.43;;;;;;;19.07;56.48;102178.94;5031566;28;20037;-73
2022/07/02 03:33:34;;;;;;;11.00;7.72;;;;;;;18.93;57.11;102170.28;5032522;28;20080;-74
2022/07/02 03:35:59;;;;;;;8.35;7.43;;;;;;;18.98;56.17;102172.25;5031722;28;20037;-73
2022/07/02 03:38:25;;;;;;;8.02;7.07;;;;;;;19.15;56.14;102170.34;5031543;28;20382;-73
2022/07/02 03:40:50;;;;;;;13.52;7.25;;;;;;;18.97;56.50;102167.88;5031570;28;20033;-73
2022/07/02 03:43:16;;;;;;;11.63;7.05;;;;;;;19.10;56.44;102176.53;5031692;28;20567;-73
2022/07/02 03:45:41;;;;;;;9.48;7.55;;;;;;;19.06;56.17;102175.41;5031858;28;20048;-73
2022/07/02 03:48:07;;;;;;;15.32;8.02;;;;;;;19.10;56.19;102184.72;5031796;28;20159;-74
2022/07/02 03:50:32;;;;;;;9.13;7.03;;;;;;;18.94;56.56;102182.00;5031529;28;20123;-72
2022/07/02 03:52:58;;;;;;;7.95;6.93;;;;;;;18.88;57.05;102174.81;5031034;28;20036;-73
2022/07/02 03:55:23;;;;;;;7.70;6.60;;;;;;;18.50;57.79;102178.25;5031393;28;20042;-72
2022/07/02 03:57:49;;;;;;;10.15;7.55;;;;;;;18.60;57.71;102181.16;5031486;28;20377;-73
2022/07/02 04:00:14;;;;;;;8.20;7.35;;;;;;;18.80;57.10;102180.69;5030886;28;20083;-73
2022/07/02 04:02:40;;;;;;;9.80;7.65;;;;;;;19.01;56.70;102194.38;5014582;28;20030;-72
2022/07/02 04:05:06;;;;;;;8.07;7.28;;;;;;;19.01;56.47;102182.66;5014775;28;20049;-70
2022/07/02 04:07:32;;;;;;;10.63;6.45;;;;;;;19.14;55.60;102183.13;5017922;28;20409;-72
2022/07/02 04:09:57;;;;;;;11.65;6.65;;;;;;;18.82;56.64;102194.88;5040390;28;20096;-72
2022/07/02 04:12:22;;;;;;;9.30;6.88;;;;;;;18.81;56.84;102188.59;5023247;28;20050;-75
2022/07/02 04:14:48;;;;;;;14.02;7.60;;;;;;;18.93;56.49;102188.50;5030843;28;20033;-73
2022/07/02 04:17:13;;;;;;;10.32;7.75;;;;;;;18.58;57.96;102193.34;5031284;28;20398;-72
2022/07/02 04:19:39;;;;;;;7.63;6.90;;;;;;;19.01;56.18;102196.28;5031315;28;20033;-74
2022/07/02 04:22:04;;;;;;;10.38;7.28;;;;;;;19.18;55.94;102197.13;5019525;28;20460;-73
2022/07/02 04:24:30;;;;;;;8.65;7.38;;;;;;;19.20;55.45;102203.94;5026283;28;20084;-74
2022/07/02 04:26:56;;;;;;;9.27;7.25;;;;;;;19.27;55.52;102192.88;5011148;28;20523;-72
2022/07/02 04:29:22;;;;;;;10.10;7.35;;;;;;;19.14;56.17;102193.22;5012261;28;20129;-74
2022/07/02 04:31:48;;;;;;;9.50;7.63;;;;;;;19.27;55.72;102187.44;5012535;28;20057;-72
2022/07/02 04:34:13;;;;;;;12.40;7.43;;;;;;;19.24;55.50;102190.66;5011833;28;20046;-73
2022/07/02 04:36:39;;;;;;;9.85;8.07;;;;;;;19.20;56.13;102189.50;5012303;28;20026;-72
2022/07/02 04:39:05;;;;;;;8.98;6.80;;;;;;;19.28;55.63;102189.09;5014300;28;20041;-74
2022/07/02 04:41:30;;;;;;;9.07;6.50;;;;;;;19.31;55.07;102191.31;5015373;28;20034;-76
2022/07/02 04:43:56;;;;;;;9.82;7.18;;;;;;;19.16;56.21;102194.63;5020711;28;20030;-73
2022/07/02 04:46:21;;;;;;;10.80;7.55;;;;;;;19.42;55.56;102193.13;5035063;28;20045;-73
2022/07/02 04:48:46;;;;;;;8.98;6.38;;;;;;;19.60;54.36;102198.28;5034874;28;20041;-72
2022/07/02 04:51:12;;;;;;;9.00;7.05;;;;;;;19.62;54.66;102196.16;5035324;28;20040;-74
2022/07/02 04:53:37;;;;;;;10.07;6.88;;;;;;;19.50;55.50;102203.59;5034731;28;20498;-73
2022/07/02 04:56:03;;;;;;;8.35;7.22;;;;;;;19.42;55.76;102200.50;5034573;28;20042;-73
2022/07/02 04:58:28;;;;;;;11.30;7.28;;;;;;;19.65;55.19;102203.00;5034595;28;20044;-73
2022/07/02 05:00:54;;;;;;;12.90;6.35;;;;;;;19.28;56.53;102205.44;5034380;28;20492;-72
2022/07/02 05:03:19;;;;;;;10.90;6.38;;;;;;;19.51;55.08;102201.72;5034925;28;20067;-72
2022/07/02 05:05:44;;;;;;;9.43;5.78;;;;;;;19.54;55.21;102196.56;5033071;28;20041;-72
2022/07/02 05:08:10;;;;;;;13.68;6.75;;;;;;;19.50;55.23;102189.97;5032924;28;20100;-71
2022/07/02 05:10:35;;;;;;;11.38;6.25;;;;;;;19.99;53.99;102197.16;5034033;28;20041;-74
2022/07/02 05:13:04;;;;;;;10.57;6.60;;;;;;;19.76;54.65;102197.44;5034122;28;20053;-72
2022/07/02 05:15:29;;;;;;;13.23;6.63;;;;;;;20.19;53.51;102210.25;5034566;28;20033;-73
2022/07/02 05:17:55;;;;;;;8.80;6.10;;;;;;;20.00;54.31;102208.91;5034173;28;20041;-73
2022/07/02 05:20:20;;;;;;;10.55;5.90;;;;;;;20.17;53.81;102206.94;5034174;28;20049;-73
2022/07/02 05:22:46;;;;;;;15.20;6.05;;;;;;;20.11;54.11;102210.69;5033850;28;20026;-73
2022/07/02 05:25:11;;;;;;;8.98;5.85;;;;;;;20.28;53.38;102203.28;5034033;28;20038;-72
2022/07/02 05:27:36;;;;;;;8.82;5.40;;;;;;;20.27;53.90;102206.25;5033927;28;20037;-72
2022/07/02 05:30:03;;;;;;;9.57;5.57;;;;;;;20.58;52.72;102205.50;5034310;28;20041;-72
2022/07/02 05:32:28;;;;;;;8.73;4.97;;;;;;;20.78;52.01;102211.13;5033998;28;20083;-72
2022/07/02 05:34:53;;;;;;;7.22;5.05;;;;;;;20.53;53.18;102221.84;5033831;28;20037;-73
2022/07/02 05:37:19;;;;;;;7.07;4.70;;;;;;;20.07;53.76;102212.25;5032791;28;20113;-74
2022/07/02 05:39:44;;;;;;;10.52;5.13;;;;;;;20.32;53.38;102214.50;5033566;28;20473;-74
2022/07/02 05:42:10;;;;;;;9.98;4.93;;;;;;;20.65;52.84;102222.50;5034147;28;20022;-73
2022/07/02 05:44:35;;;;;;;9.30;4.60;;;;;;;20.78;52.52;102222.06;5033755;28;20048;-74
2022/07/02 05:47:02;;;;;;;10.48;4.80;;;;;;;20.39;53.17;102226.88;5032989;28;20041;-75
2022/07/02 05:49:27;;;;;;;6.07;4.50;;;;;;;20.91;51.45;102224.41;5032823;28;20072;-74
2022/07/02 05:51:53;;;;;;;7.22;4.50;;;;;;;21.19;50.70;102231.50;5033702;28;20393;-74
2022/07/02 05:54:18;;;;;;;10.75;4.15;;;;;;;20.93;51.21;102224.97;5033964;28;20033;-73
2022/07/02 05:56:44;;;;;;;8.32;4.22;;;;;;;20.78;51.16;102230.28;5032159;28;20045;-74
2022/07/02 05:59:09;;;;;;;8.38;3.90;;;;;;;20.88;50.90;102231.19;5034005;28;20379;-74
2022/07/02 06:01:35;;;;;;;6.70;4.20;;;;;;;20.87;50.99;102234.19;5034098;28;20036;-74
2022/07/02 06:04:00;;;;;;;5.55;3.67;;;;;;;19.87;54.00;102237.41;5034035;28;20033;-75
2022/07/02 06:09:10;;;;;;;4.97;3.10;;;;;;;21.23;49.13;102236.16;5033920;28;20044;-74
2022/07/02 06:11:35;;;;;;;5.97;2.75;;;;;;;21.21;49.32;102243.78;5033268;28;20037;-76
2022/07/02 06:14:00;;;;;;;6.13;2.78;;;;;;;20.76;50.35;102232.44;5033701;28;20029;-74
2022/07/02 06:16:27;;;;;;;7.13;2.67;;;;;;;21.15;48.08;102236.63;5048713;28;20045;-76
2022/07/02 06:18:53;;;;;;;4.82;2.33;;;;;;;20.20;49.87;102236.50;5032331;28;20044;-74
2022/07/02 06:21:18;;;;;;;4.60;2.13;;;;;;;20.70;49.00;102247.13;5033893;28;20481;-74
2022/07/02 06:23:44;;;;;;;6.93;2.88;;;;;;;21.57;46.88;102237.50;5033169;28;20038;-75
2022/07/02 06:26:09;;;;;;;5.43;2.40;;;;;;;21.18;47.33;102240.75;5033318;28;20038;-75
2022/07/02 06:28:34;;;;;;;5.22;1.55;;;;;;;20.55;48.23;102239.63;5033670;28;20669;-74
2022/07/02 06:31:00;;;;;;;6.60;1.75;;;;;;;21.12;47.21;102239.91;5031729;28;20033;-76
2022/07/02 06:33:25;;;;;;;6.20;1.73;;;;;;;21.21;47.46;102243.78;5033329;28;20033;-75
2022/07/02 06:35:51;;;;;;;3.15;1.70;;;;;;;21.28;46.31;102244.41;5032482;28;20041;-74
2022/07/02 06:38:16;;;;;;;2.20;1.30;;;;;;;21.58;45.84;102250.06;5032650;28;20033;-74
2022/07/02 06:40:41;;;;;;;4.10;1.48;;;;;;;21.11;45.52;102257.38;5032394;28;20156;-76
2022/07/02 06:43:07;;;;;;;6.65;1.45;;;;;;;21.06;45.38;102257.34;5032178;28;20037;-78
2022/07/02 06:45:32;;;;;;;2.67;1.20;;;;;;;21.25;45.93;102266.78;5032155;28;20147;-73
2022/07/02 06:47:58;;;;;;;3.70;1.30;;;;;;;21.11;45.44;102265.56;5031506;28;20037;-71
2022/07/02 06:50:23;;;;;;;1.20;1.10;;;;;;;22.10;43.80;102258.34;5032777;28;20033;-76
2022/07/02 06:52:49;;;;;;;13.93;1.83;;;;;;;22.06;44.01;102268.16;5032633;28;20474;-74
2022/07/02 06:55:14;;;;;;;3.70;0.93;;;;;;;22.27;43.84;102256.19;5031631;28;20045;-77
2022/07/02 06:57:40;;;;;;;3.42;1.33;;;;;;;22.03;44.48;102256.94;5031802;28;20037;-75
2022/07/02 07:00:06;;;;;;;4.20;1.20;;;;;;;22.66;42.53;102264.84;5032085;28;20033;-73
2022/07/02 07:02:31;;;;;;;3.63;1.13;;;;;;;22.58;43.04;102260.69;5032444;28;20057;-74
2022/07/02 07:04:57;;;;;;;3.22;1.23;;;;;;;22.54;42.71;102270.53;5032384;28;20034;-74
2022/07/02 07:07:29;;;;;;;4.00;1.27;;;;;;;21.92;42.71;102266.16;5032340;28;20116;-73
2022/07/02 07:09:55;;;;;;;3.60;1.00;;;;;;;22.25;42.70;102272.06;5032098;28;20044;-71
2022/07/02 07:12:20;;;;;;;3.78;2.13;;;;;;;22.37;42.92;102269.94;5032859;28;20041;-73
2022/07/02 07:14:46;;;;;;;5.45;0.80;;;;;;;22.35;43.03;102269.38;5032110;28;20041;-74
2022/07/02 07:17:11;;;;;;;1.75;0.70;;;;;;;23.19;41.50;102271.75;5032350;28;20033;-74
2022/07/02 07:19:37;;;;;;;4.88;1.05;;;;;;;23.06;40.62;102275.84;5032459;28;20339;-74
2022/07/02 07:22:03;;;;;;;0.63;0.40;;;;;;;22.96;40.98;102277.78;5032139;28;20044;-75
2022/07/02 07:24:30;;;;;;;3.40;0.50;;;;;;;23.29;40.71;102278.03;5032606;28;20466;-73
2022/07/02 07:26:57;;;;;;;3.25;0.65;;;;;;;23.09;40.61;102278.06;5030703;28;20051;-73
2022/07/02 07:29:23;;;;;;;1.92;0.70;;;;;;;23.27;39.81;102271.22;5031911;28;20155;-73
2022/07/02 07:31:48;;;;;;;3.17;0.75;;;;;;;23.12;39.36;102283.00;5032191;28;20076;-75
2022/07/02 07:34:13;;;;;;;3.85;0.90;;;;;;;22.61;39.90;102276.63;5031704;28;20516;-72
2022/07/02 07:36:39;;;;;;;3.38;0.77;;;;;;;23.02;38.93;102282.16;5031682;28;20109;-71
2022/07/02 07:39:05;;;;;;;2.10;0.60;;;;;;;23.33;39.38;102278.38;5031880;28;20045;-72
2022/07/02 07:41:31;;;;;;;0.98;0.60;;;;;;;23.55;38.33;102276.13;5031881;28;20042;-73
2022/07/02 07:43:56;;;;;;;6.50;0.60;;;;;;;23.38;37.39;102272.88;5030554;28;20091;-74
2022/07/02 07:46:21;;;;;;;0.63;0.50;;;;;;;23.57;36.95;102265.69;5031467;28;20065;-72
2022/07/02 07:48:47;;;;;;;1.58;1.33;;;;;;;23.31;37.42;102270.41;5031873;28;20481;-72
2022/07/02 07:51:13;;;;;;;3.22;0.60;;;;;;;23.05;37.49;102260.50;5032177;28;20120;-74
2022/07/02 07:53:51;;;;;;;1.45;0.30;;;;;;;23.24;36.39;102264.34;5030340;28;20033;-75
2022/07/02 07:56:20;;;;;;;2.63;0.60;;;;;;;24.30;35.57;102272.38;5032031;28;20037;-75
2022/07/02 07:58:46;;;;;;;1.08;0.52;;;;;;;24.60;34.77;102263.13;5031754;28;20034;-73
2022/07/02 08:01:12;;;;;;;1.45;0.35;;;;;;;23.75;35.06;102258.81;5032017;28;20160;-74
2022/07/02 08:03:37;;;;;;;2.28;0.40;;;;;;;23.70;35.38;102267.06;5031864;28;20112;-75
2022/07/02 08:06:03;;;;;;;0.95;0.40;;;;;;;23.62;35.08;102262.13;5030942;28;20063;-73
2022/07/02 08:08:28;;;;;;;0.85;0.30;;;;;;;24.24;33.83;102257.84;5031826;28;20629;-73
2022/07/02 08:10:54;;;;;;;1.20;0.30;;;;;;;23.65;33.54;102264.31;5031336;28;20042;-73
2022/07/02 08:13:21;;;;;;;0.28;0.20;;;;;;;24.10;33.75;102261.47;5030792;28;20045;-73
2022/07/02 08:15:47;;;;;;;1.77;0.50;;;;;;;24.10;33.64;102250.47;5034980;28;20068;-75
2022/07/02 08:18:12;;;;;;;7.65;0.50;;;;;;;24.36;33.48;102263.00;5035837;28;20041;-73
2022/07/02 08:20:38;;;;;;;0.65;0.32;;;;;;;23.94;33.89;102255.16;5035362;28;20036;-73
2022/07/02 08:23:03;;;;;;;2.83;0.57;;;;;;;24.57;31.83;102250.78;5034848;28;20676;-73
2022/07/02 08:25:30;;;;;;;1.48;0.30;;;;;;;24.33;31.71;102253.38;5034902;28;20034;-73
2022/07/02 08:27:56;;;;;;;2.25;0.47;;;;;;;23.87;32.80;102242.84;5034644;28;20042;-74
2022/07/02 08:30:21;;;;;;;1.65;0.30;;;;;;;24.72;31.29;102247.97;5034706;28;20033;-74
2022/07/02 08:32:46;;;;;;;0.63;0.20;;;;;;;24.23;31.71;102250.72;5035029;28;20026;-75
2022/07/02 08:35:12;;;;;;;3.55;0.45;;;;;;;24.75;32.04;102244.66;5035074;28;20049;-74
2022/07/02 08:37:37;;;;;;;0.98;0.45;;;;;;;25.07;32.23;102244.13;5034942;28;20037;-75
2022/07/02 08:40:03;;;;;;;1.75;0.30;;;;;;;26.28;31.68;102246.44;5034536;28;20667;-75
2022/07/02 08:42:31;;;;;;;2.78;0.60;;;;;;;25.30;31.46;102234.31;5050501;28;20039;-75
2022/07/02 08:45:03;;;;;;;2.08;0.57;;;;;;;25.84;30.88;102245.88;5034938;28;20493;-76
2022/07/02 08:47:30;;;;;;;0.75;0.40;;;;;;;26.25;30.92;102240.69;5034410;28;20038;-74
2022/07/02 08:49:57;;;;;;;0.68;0.30;;;;;;;26.56;30.77;102239.13;5034255;28;20072;-77
2022/07/02 08:52:25;;;;;;;2.95;0.57;;;;;;;25.71;31.61;102241.06;5034443;28;20732;-77
2022/07/02 08:54:52;;;;;;;2.95;0.40;;;;;;;25.39;32.97;102233.38;5034976;28;20034;-78
2022/07/02 08:57:19;;;;;;;1.55;0.60;;;;;;;26.06;32.25;102235.16;5035587;28;20032;-77
2022/07/02 08:59:45;;;;;;;10.57;0.82;;;;;;;26.04;32.07;102238.16;5029968;28;20723;-77
2022/07/02 09:02:13;;;;;;;2.08;0.52;;;;;;;26.82;31.62;102240.44;5030982;28;20040;-74
2022/07/02 09:04:46;;;;;;;2.20;0.43;;;;;;;25.50;30.89;102242.38;5030754;28;20123;-74
2022/07/02 09:07:13;;;;;;;1.67;0.40;;;;;;;25.37;30.99;102234.78;5031514;28;20057;-73
2022/07/02 09:09:41;;;;;;;2.05;0.45;;;;;;;24.72;31.46;102242.47;5029401;28;20256;-72
2022/07/02 09:12:13;;;;;;;1.85;0.43;;;;;;;25.07;31.37;102233.94;5031079;28;20061;-70
2022/07/02 09:14:39;;;;;;;1.20;0.40;;;;;;;25.56;30.74;102236.53;5031893;28;20041;-74
2022/07/02 09:17:10;;;;;;;1.10;0.35;;;;;;;25.91;29.68;102232.53;5031863;28;20033;-73
2022/07/02 09:19:36;;;;;;;;;;;;;;;25.82;30.43;102228.81;5030019;28;20041;-75
2022/07/02 09:22:03;;;;;;;3.28;0.50;;;;;;;26.47;29.67;102221.63;5031938;28;19917;-77
2022/07/02 09:24:33;;;;;;;3.17;0.60;;;;;;;26.72;29.42;102224.03;5031212;28;20025;-75
2022/07/02 09:26:59;;;;;;;;;;;;;;;26.55;29.58;102224.56;5030918;28;20037;-75
2022/07/02 09:29:24;;;;;;;3.75;0.35;;;;;;;26.35;29.76;102227.59;5031471;28;19917;-77
2022/07/02 09:31:50;;;;;;;2.42;0.45;;;;;;;25.97;28.75;102226.69;5031142;28;20022;-76
2022/07/02 09:34:27;;;;;;;2.67;0.55;;;;;;;25.95;27.91;102225.34;5032203;28;20041;-74
2022/07/02 09:36:52;;;;;;;1.77;0.43;;;;;;;26.20;28.89;102225.03;5031876;28;20056;-74
2022/07/02 09:42:46;;;;;;;4.85;0.65;;;;;;;25.51;30.02;102213.75;5027736;28;20504;-74
2022/07/02 09:45:12;;;;;;;7.03;0.50;;;;;;;25.98;30.51;102217.28;5033016;28;20481;-75
2022/07/02 09:47:48;;;;;;;2.50;0.55;;;;;;;25.89;32.02;102221.00;5032601;28;20025;-76
2022/07/02 09:50:16;;;;;;;1.27;0.28;;;;;;;25.49;31.52;102207.72;5032481;28;20099;-76
2022/07/02 09:52:52;;;;;;;2.70;0.50;;;;;;;25.74;31.05;102215.69;5033324;28;20656;-76
2022/07/02 09:55:23;;;;;;;4.18;0.55;;;;;;;25.47;31.02;102213.50;5031146;28;20068;-73
2022/07/02 09:57:53;;;;;;;;;;;;;;;26.18;29.88;102213.47;5031788;28;20151;-76
2022/07/02 10:00:19;;;;;;;3.05;0.43;;;;;;;27.53;29.52;102204.97;5030946;28;19916;-74
2022/07/02 10:02:45;;;;;;;2.35;0.70;;;;;;;28.17;28.02;102205.88;5030254;28;20029;-76
2022/07/02 10:05:10;;;;;;;1.48;0.40;;;;;;;27.57;28.51;102206.00;5031606;28;20381;-76
2022/07/02 10:07:36;;;;;;;3.95;0.70;;;;;;;27.10;28.84;102200.78;5031044;28;20096;-75
2022/07/02 10:10:04;;;;;;;2.42;0.60;;;;;;;27.30;28.13;102205.91;5030437;28;20034;-77
2022/07/02 10:12:30;;;;;;;1.15;0.32;;;;;;;26.52;29.31;102207.75;5032036;28;20075;-75
2022/07/02 10:14:57;;;;;;;3.30;0.57;;;;;;;27.05;28.45;102200.84;5030675;28;20103;-74
2022/07/02 10:17:23;;;;;;;1.15;0.43;;;;;;;28.42;27.00;102197.03;5031416;28;20063;-76
2022/07/02 10:19:51;;;;;;;2.58;0.65;;;;;;;27.97;27.59;102198.84;5032045;28;20065;-76
2022/07/02 10:22:17;;;;;;;2.35;0.40;;;;;;;27.46;28.12;102195.47;5027840;28;20029;-77
2022/07/02 10:28:04;;;;;;;0.77;0.38;;;;;;;27.10;27.83;102198.03;5029289;28;20049;-77
2022/07/02 10:30:33;;;;;;;1.50;0.35;;;;;;;27.38;28.09;102202.47;5031487;28;20029;-76
2022/07/02 10:33:22;;;;;;;3.17;0.95;;;;;;;27.40;28.62;102200.25;5023578;28;20034;-75
2022/07/02 10:35:49;;;;;;;2.33;0.80;;;;;;;28.07;26.78;102189.53;5031258;28;20515;-77
2022/07/02 10:38:14;;;;;;;1.52;0.50;;;;;;;27.67;27.43;102185.66;5031798;28;20451;-76
2022/07/02 10:44:02;;;;;;;1.67;0.40;;;;;;;28.93;26.84;102186.38;5030947;28;20041;-76
2022/07/02 10:46:34;;;;;;;3.20;0.75;;;;;;;28.96;27.26;102190.44;5035127;28;20512;-76
2022/07/02 10:49:00;;;;;;;2.47;0.50;;;;;;;27.87;27.00;102188.00;5047837;28;20037;-76
2022/07/02 10:51:28;;;;;;;4.25;0.40;;;;;;;27.54;27.84;102184.50;5031335;28;20037;-76
2022/07/02 10:54:02;;;;;;;6.25;0.50;;;;;;;28.14;26.95;102182.44;5030838;28;20087;-76
2022/07/02 10:56:51;;;;;;;2.72;0.40;;;;;;;28.44;26.18;102180.94;5029812;28;20584;-76
2022/07/02 10:59:33;;;;;;;1.00;0.43;;;;;;;28.70;26.58;102170.91;5029724;28;20079;-75
2022/07/02 11:02:07;;;;;;;4.07;0.82;;;;;;;28.05;26.79;102164.16;5026821;28;20402;-74
2022/07/02 11:04:34;;;;;;;5.40;0.43;;;;;;;27.62;28.01;102164.47;5026146;28;20041;-75
2022/07/02 11:07:11;;;;;;;3.88;0.95;;;;;;;27.58;27.34;102163.44;5027725;28;20041;-74
2022/07/02 11:09:50;;;;;;;0.77;0.50;;;;;;;28.13;27.97;102166.16;5030735;28;20029;-77
2022/07/02 11:12:27;;;;;;;2.00;0.60;;;;;;;28.23;28.82;102163.16;5030513;28;20064;-75
2022/07/02 11:14:54;;;;;;;2.80;0.70;;;;;;;28.25;26.99;102145.13;5033491;28;20541;-74
2022/07/02 11:17:24;;;;;;;3.33;0.60;;;;;;;29.50;26.61;102145.81;5030783;28;20045;-75
2022/07/02 11:19:56;;;;;;;4.60;0.57;;;;;;;30.10;26.98;102149.56;5032041;28;20037;-77
2022/07/02 11:22:22;;;;;;;1.98;0.68;;;;;;;29.24;25.45;102137.41;5031402;28;20030;-80
2022/07/02 11:24:49;;;;;;;1.10;0.45;;;;;;;29.66;25.83;102144.19;5032763;28;20398;-79
2022/07/02 11:27:15;;;;;;;3.80;0.77;;;;;;;29.90;25.56;102146.56;5032671;28;20017;-76
2022/07/02 11:29:50;;;;;;;2.67;0.70;;;;;;;28.83;27.27;102144.31;5031328;28;20034;-76
2022/07/02 11:32:16;;;;;;;1.98;0.50;;;;;;;27.71;28.12;102140.50;5012279;28;20036;-78
2022/07/02 11:34:41;;;;;;;4.20;0.60;;;;;;;27.66;28.50;102137.03;5027491;28;20045;-76
2022/07/02 11:37:07;;;;;;;1.65;0.43;;;;;;;27.92;28.32;102145.59;5030758;28;20041;-77